sensor_id;sensor_type;location;lat;lon;timestamp;pressure;altitude;pressure_sealevel;temperature;humidity
54920;BME280;63804;53.120;8.764;2024-02-21T00:00:07;102027.41;;;10.42;80.72
54920;BME280;63804;53.120;8.764;2024-02-21T00:02:34;102024.84;;;10.41;80.83
54920;BME280;63804;53.120;8.764;2024-02-21T00:05:01;102022.13;;;10.42;80.57
54920;BME280;63804;53.120;8.764;2024-02-21T00:07:30;102023.03;;;10.41;80.92
54920;BME280;63804;53.120;8.764;2024-02-21T00:09:57;102022.28;;;10.39;80.84
54920;BME280;63804;53.120;8.764;2024-02-21T00:12:24;102028.56;;;10.37;80.95
54920;BME280;63804;53.120;8.764;2024-02-21T00:14:52;102020.63;;;10.37;80.84
54920;BME280;63804;53.120;8.764;2024-02-21T00:17:19;102024.91;;;10.39;80.85
54920;BME280;63804;53.120;8.764;2024-02-21T00:19:46;102022.13;;;10.42;80.83
54920;BME280;63804;53.120;8.764;2024-02-21T00:22:13;102011.09;;;10.34;81.10
54920;BME280;63804;53.120;8.764;2024-02-21T00:24:41;101999.44;;;10.37;81.18
54920;BME280;63804;53.120;8.764;2024-02-21T00:27:09;102015.19;;;10.40;81.24
54920;BME280;63804;53.120;8.764;2024-02-21T00:29:36;102010.69;;;10.42;81.19
54920;BME280;63804;53.120;8.764;2024-02-21T00:32:03;102003.34;;;10.47;80.97
54920;BME280;63804;53.120;8.764;2024-02-21T00:34:30;102005.19;;;10.45;80.79
54920;BME280;63804;53.120;8.764;2024-02-21T00:36:57;101996.41;;;10.44;81.04
54920;BME280;63804;53.120;8.764;2024-02-21T00:39:25;101990.00;;;10.48;80.96
54920;BME280;63804;53.120;8.764;2024-02-21T00:41:52;101991.78;;;10.48;81.13
54920;BME280;63804;53.120;8.764;2024-02-21T00:44:19;101993.28;;;10.54;80.83
54920;BME280;63804;53.120;8.764;2024-02-21T00:46:46;102003.59;;;10.42;80.83
54920;BME280;63804;53.120;8.764;2024-02-21T00:49:14;101992.84;;;10.45;81.07
54920;BME280;63804;53.120;8.764;2024-02-21T00:51:41;101993.50;;;10.49;80.93
54920;BME280;63804;53.120;8.764;2024-02-21T00:54:08;101994.38;;;10.49;81.04
54920;BME280;63804;53.120;8.764;2024-02-21T00:56:35;101998.78;;;10.49;80.72
54920;BME280;63804;53.120;8.764;2024-02-21T00:59:02;101993.75;;;10.44;80.76
54920;BME280;63804;53.120;8.764;2024-02-21T01:01:29;101985.34;;;10.36;81.06
54920;BME280;63804;53.120;8.764;2024-02-21T01:03:57;101985.03;;;10.42;81.12
54920;BME280;63804;53.120;8.764;2024-02-21T01:06:24;101990.78;;;10.51;81.00
54920;BME280;63804;53.120;8.764;2024-02-21T01:08:51;101980.09;;;10.52;80.77
54920;BME280;63804;53.120;8.764;2024-02-21T01:11:18;101986.34;;;10.51;80.98
54920;BME280;63804;53.120;8.764;2024-02-21T01:13:46;101980.50;;;10.44;81.03
54920;BME280;63804;53.120;8.764;2024-02-21T01:16:13;101975.16;;;10.46;80.98
54920;BME280;63804;53.120;8.764;2024-02-21T01:18:40;101974.28;;;10.45;81.16
54920;BME280;63804;53.120;8.764;2024-02-21T01:21:07;101971.66;;;10.45;80.97
54920;BME280;63804;53.120;8.764;2024-02-21T01:23:35;101969.16;;;10.42;81.28
54920;BME280;63804;53.120;8.764;2024-02-21T01:26:03;101968.06;;;10.46;80.96
54920;BME280;63804;53.120;8.764;2024-02-21T01:28:31;101957.47;;;10.46;80.98
54920;BME280;63804;53.120;8.764;2024-02-21T01:30:58;101941.47;;;10.48;80.92
54920;BME280;63804;53.120;8.764;2024-02-21T01:33:25;101934.38;;;10.48;80.94
54920;BME280;63804;53.120;8.764;2024-02-21T01:35:52;101934.38;;;10.48;80.67
54920;BME280;63804;53.120;8.764;2024-02-21T01:38:20;101914.25;;;10.46;80.97
54920;BME280;63804;53.120;8.764;2024-02-21T01:40:48;101918.00;;;10.42;80.92
54920;BME280;63804;53.120;8.764;2024-02-21T01:43:19;101912.44;;;10.46;81.19
54920;BME280;63804;53.120;8.764;2024-02-21T01:45:55;101908.69;;;10.51;80.92
54920;BME280;63804;53.120;8.764;2024-02-21T01:48:23;101893.91;;;10.46;80.98
54920;BME280;63804;53.120;8.764;2024-02-21T01:50:51;101883.03;;;10.51;80.70
54920;BME280;63804;53.120;8.764;2024-02-21T01:53:40;101875.69;;;10.56;80.29
54920;BME280;63804;53.120;8.764;2024-02-21T01:56:09;101858.84;;;10.41;81.40
54920;BME280;63804;53.120;8.764;2024-02-21T01:58:39;101856.31;;;10.40;81.43
54920;BME280;63804;53.120;8.764;2024-02-21T02:01:07;101848.00;;;10.30;81.52
54920;BME280;63804;53.120;8.764;2024-02-21T02:03:35;101827.59;;;10.32;81.43
54920;BME280;63804;53.120;8.764;2024-02-21T02:06:03;101821.88;;;10.40;81.04
54920;BME280;63804;53.120;8.764;2024-02-21T02:08:31;101815.38;;;10.30;81.49
54920;BME280;63804;53.120;8.764;2024-02-21T02:10:59;101819.81;;;10.29;81.41
54920;BME280;63804;53.120;8.764;2024-02-21T02:13:27;101825.91;;;10.31;81.57
54920;BME280;63804;53.120;8.764;2024-02-21T02:15:54;101821.03;;;10.39;81.05
54920;BME280;63804;53.120;8.764;2024-02-21T02:18:21;101821.63;;;10.44;80.74
54920;BME280;63804;53.120;8.764;2024-02-21T02:20:49;101817.38;;;10.42;80.84
54920;BME280;63804;53.120;8.764;2024-02-21T02:23:29;101823.94;;;10.35;81.05
54920;BME280;63804;53.120;8.764;2024-02-21T02:25:56;101816.41;;;10.27;81.31
54920;BME280;63804;53.120;8.764;2024-02-21T02:28:24;101829.66;;;10.43;81.01
54920;BME280;63804;53.120;8.764;2024-02-21T02:30:51;101830.50;;;10.43;80.71
54920;BME280;63804;53.120;8.764;2024-02-21T02:33:21;101831.28;;;10.45;80.47
54920;BME280;63804;53.120;8.764;2024-02-21T02:35:49;101835.22;;;10.38;80.90
54920;BME280;63804;53.120;8.764;2024-02-21T02:38:16;101838.72;;;10.39;80.89
54920;BME280;63804;53.120;8.764;2024-02-21T02:40:44;101827.34;;;10.37;80.86
54920;BME280;63804;53.120;8.764;2024-02-21T02:43:12;101819.91;;;10.43;80.61
54920;BME280;63804;53.120;8.764;2024-02-21T02:45:39;101821.56;;;10.46;80.60
54920;BME280;63804;53.120;8.764;2024-02-21T02:48:06;101817.38;;;10.42;80.64
54920;BME280;63804;53.120;8.764;2024-02-21T02:50:34;101821.63;;;10.44;80.78
54920;BME280;63804;53.120;8.764;2024-02-21T02:53:01;101834.00;;;10.44;80.72
54920;BME280;63804;53.120;8.764;2024-02-21T02:55:28;101825.31;;;10.42;80.81
54920;BME280;63804;53.120;8.764;2024-02-21T02:57:56;101827.00;;;10.43;80.59
54920;BME280;63804;53.120;8.764;2024-02-21T03:00:23;101822.22;;;10.49;80.11
54920;BME280;63804;53.120;8.764;2024-02-21T03:02:51;101830.69;;;10.40;80.79
54920;BME280;63804;53.120;8.764;2024-02-21T03:05:20;101836.66;;;10.44;80.54
54920;BME280;63804;53.120;8.764;2024-02-21T03:07:48;101826.41;;;10.38;80.72
54920;BME280;63804;53.120;8.764;2024-02-21T03:10:16;101820.88;;;10.42;80.50
54920;BME280;63804;53.120;8.764;2024-02-21T03:12:45;101818.13;;;10.44;80.53
54920;BME280;63804;53.120;8.764;2024-02-21T03:15:13;101826.41;;;10.38;80.88
54920;BME280;63804;53.120;8.764;2024-02-21T03:17:41;101820.69;;;10.45;80.70
54920;BME280;63804;53.120;8.764;2024-02-21T03:20:09;101818.69;;;10.49;80.61
54920;BME280;63804;53.120;8.764;2024-02-21T03:22:39;101821.97;;;10.54;80.58
54920;BME280;63804;53.120;8.764;2024-02-21T03:25:08;101814.09;;;10.53;80.26
54920;BME280;63804;53.120;8.764;2024-02-21T03:27:35;101825.31;;;10.42;80.66
54920;BME280;63804;53.120;8.764;2024-02-21T03:30:03;101814.03;;;10.38;81.24
54920;BME280;63804;53.120;8.764;2024-02-21T03:32:31;101814.78;;;10.40;81.26
54920;BME280;63804;53.120;8.764;2024-02-21T03:34:58;101810.84;;;10.47;81.10
54920;BME280;63804;53.120;8.764;2024-02-21T03:37:26;101820.50;;;10.48;81.37
54920;BME280;63804;53.120;8.764;2024-02-21T03:39:53;101811.97;;;10.43;82.06
54920;BME280;63804;53.120;8.764;2024-02-21T03:42:20;101805.03;;;10.41;82.33
54920;BME280;63804;53.120;8.764;2024-02-21T03:44:47;101799.06;;;10.37;82.46
54920;BME280;63804;53.120;8.764;2024-02-21T03:47:15;101800.84;;;10.37;83.02
54920;BME280;63804;53.120;8.764;2024-02-21T03:49:42;101796.34;;;10.39;83.45
54920;BME280;63804;53.120;8.764;2024-02-21T03:52:09;101809.22;;;10.29;83.83
54920;BME280;63804;53.120;8.764;2024-02-21T03:54:37;101817.50;;;10.23;84.58
54920;BME280;63804;53.120;8.764;2024-02-21T03:57:05;101817.28;;;10.28;84.45
54920;BME280;63804;53.120;8.764;2024-02-21T03:59:32;101809.72;;;10.20;85.04
54920;BME280;63804;53.120;8.764;2024-02-21T04:01:59;101810.84;;;10.16;85.54
54920;BME280;63804;53.120;8.764;2024-02-21T04:04:27;101811.16;;;10.10;85.94
54920;BME280;63804;53.120;8.764;2024-02-21T04:06:54;101812.69;;;10.14;85.87
54920;BME280;63804;53.120;8.764;2024-02-21T04:09:22;101808.19;;;10.16;85.85
54920;BME280;63804;53.120;8.764;2024-02-21T04:11:49;101810.66;;;10.19;86.12
54920;BME280;63804;53.120;8.764;2024-02-21T04:14:16;101805.19;;;10.06;86.79
54920;BME280;63804;53.120;8.764;2024-02-21T04:16:43;101805.00;;;10.09;86.83
54920;BME280;63804;53.120;8.764;2024-02-21T04:19:10;101798.94;;;10.07;86.84
54920;BME280;63804;53.120;8.764;2024-02-21T04:21:37;101806.13;;;10.05;87.10
54920;BME280;63804;53.120;8.764;2024-02-21T04:24:05;101801.09;;;10.00;87.75
54920;BME280;63804;53.120;8.764;2024-02-21T04:26:33;101796.97;;;9.95;88.16
54920;BME280;63804;53.120;8.764;2024-02-21T04:29:01;101799.44;;;9.98;88.09
54920;BME280;63804;53.120;8.764;2024-02-21T04:31:29;101800.56;;;9.94;88.25
54920;BME280;63804;53.120;8.764;2024-02-21T04:33:56;101806.00;;;9.91;88.82
54920;BME280;63804;53.120;8.764;2024-02-21T04:36:24;101796.06;;;9.96;88.61
54920;BME280;63804;53.120;8.764;2024-02-21T04:38:51;101798.44;;;10.00;88.21
54920;BME280;63804;53.120;8.764;2024-02-21T04:41:18;101785.78;;;9.90;88.75
54920;BME280;63804;53.120;8.764;2024-02-21T04:43:46;101791.75;;;9.93;88.76
54920;BME280;63804;53.120;8.764;2024-02-21T04:46:15;101789.13;;;9.93;88.81
54920;BME280;63804;53.120;8.764;2024-02-21T04:48:45;101784.00;;;9.90;88.77
54920;BME280;63804;53.120;8.764;2024-02-21T04:51:12;101786.47;;;9.93;89.07
54920;BME280;63804;53.120;8.764;2024-02-21T04:53:40;101788.00;;;9.97;88.76
54920;BME280;63804;53.120;8.764;2024-02-21T04:56:08;101781.78;;;9.98;88.88
54920;BME280;63804;53.120;8.764;2024-02-21T04:58:38;101788.44;;;10.06;88.64
54920;BME280;63804;53.120;8.764;2024-02-21T05:01:06;101781.94;;;9.95;88.65
54920;BME280;63804;53.120;8.764;2024-02-21T05:03:35;101789.13;;;9.93;88.75
54920;BME280;63804;53.120;8.764;2024-02-21T05:06:02;101786.63;;;9.90;88.95
54920;BME280;63804;53.120;8.764;2024-02-21T05:08:29;101784.09;;;9.89;89.38
54920;BME280;63804;53.120;8.764;2024-02-21T05:10:56;101784.53;;;9.97;88.91
54920;BME280;63804;53.120;8.764;2024-02-21T05:13:23;101786.31;;;9.96;89.13
54920;BME280;63804;53.120;8.764;2024-02-21T05:15:51;101781.50;;;9.87;89.30
54920;BME280;63804;53.120;8.764;2024-02-21T05:18:18;101770.75;;;9.90;89.41
54920;BME280;63804;53.120;8.764;2024-02-21T05:20:46;101775.78;;;9.95;88.82
54920;BME280;63804;53.120;8.764;2024-02-21T05:23:13;101768.38;;;9.86;89.51
54920;BME280;63804;53.120;8.764;2024-02-21T05:25:40;101764.88;;;9.85;89.64
54920;BME280;63804;53.120;8.764;2024-02-21T05:28:07;101759.50;;;9.87;89.73
54920;BME280;63804;53.120;8.764;2024-02-21T05:30:35;101749.00;;;9.85;89.54
54920;BME280;63804;53.120;8.764;2024-02-21T05:33:05;101759.91;;;9.95;89.46
54920;BME280;63804;53.120;8.764;2024-02-21T05:35:34;101744.88;;;9.80;89.72
54920;BME280;63804;53.120;8.764;2024-02-21T05:38:02;101747.09;;;9.87;89.71
54920;BME280;63804;53.120;8.764;2024-02-21T05:40:38;101741.75;;;9.89;89.59
54920;BME280;63804;53.120;8.764;2024-02-21T05:43:07;101725.50;;;9.79;89.70
54920;BME280;63804;53.120;8.764;2024-02-21T05:45:34;101743.72;;;9.85;89.92
54920;BME280;63804;53.120;8.764;2024-02-21T05:48:02;101747.09;;;9.87;89.73
54920;BME280;63804;53.120;8.764;2024-02-21T05:50:29;101741.56;;;9.92;89.48
54920;BME280;63804;53.120;8.764;2024-02-21T05:52:57;101739.28;;;9.86;89.89
54920;BME280;63804;53.120;8.764;2024-02-21T05:55:24;101730.06;;;9.93;89.38
54920;BME280;63804;53.120;8.764;2024-02-21T05:57:53;101732.88;;;9.90;89.09
54920;BME280;63804;53.120;8.764;2024-02-21T06:00:21;101741.97;;;9.84;89.75
54920;BME280;63804;53.120;8.764;2024-02-21T06:02:48;101741.66;;;9.90;89.63
54920;BME280;63804;53.120;8.764;2024-02-21T06:05:16;101730.91;;;9.93;89.34
54920;BME280;63804;53.120;8.764;2024-02-21T06:07:43;101733.97;;;10.01;88.93
54920;BME280;63804;53.120;8.764;2024-02-21T06:10:11;101731.59;;;9.97;89.28
54920;BME280;63804;53.120;8.764;2024-02-21T06:12:38;101737.41;;;10.04;89.05
54920;BME280;63804;53.120;8.764;2024-02-21T06:15:05;101724.19;;;10.04;88.75
54920;BME280;63804;53.120;8.764;2024-02-21T06:17:32;101734.84;;;10.02;89.04
54920;BME280;63804;53.120;8.764;2024-02-21T06:20:00;101734.94;;;10.00;88.70
54920;BME280;63804;53.120;8.764;2024-02-21T06:22:27;101728.34;;;9.92;89.23
54920;BME280;63804;53.120;8.764;2024-02-21T06:24:54;101732.88;;;9.90;89.49
54920;BME280;63804;53.120;8.764;2024-02-21T06:27:21;101733.28;;;9.98;89.37
54920;BME280;63804;53.120;8.764;2024-02-21T06:29:48;101724.59;;;9.96;89.36
54920;BME280;63804;53.120;8.764;2024-02-21T06:32:15;101722.63;;;9.99;89.32
54920;BME280;63804;53.120;8.764;2024-02-21T06:34:42;101721.00;;;9.97;89.31
54920;BME280;63804;53.120;8.764;2024-02-21T06:37:10;101722.81;;;9.96;89.38
54920;BME280;63804;53.120;8.764;2024-02-21T06:39:37;101731.66;;;9.95;89.32
54920;BME280;63804;53.120;8.764;2024-02-21T06:42:04;101736.94;;;9.95;89.42
54920;BME280;63804;53.120;8.764;2024-02-21T06:44:31;101739.38;;;10.00;89.16
54920;BME280;63804;53.120;8.764;2024-02-21T06:47:03;101738.50;;;9.99;89.14
54920;BME280;63804;53.120;8.764;2024-02-21T06:49:30;101739.53;;;9.97;89.36
54920;BME280;63804;53.120;8.764;2024-02-21T06:51:57;101736.78;;;9.98;89.19
54920;BME280;63804;53.120;8.764;2024-02-21T06:54:24;101745.59;;;9.99;89.19
54920;BME280;63804;53.120;8.764;2024-02-21T06:56:52;101741.50;;;10.09;89.34
54920;BME280;63804;53.120;8.764;2024-02-21T06:59:18;101738.50;;;9.99;89.13
54920;BME280;63804;53.120;8.764;2024-02-21T07:01:48;101747.22;;;10.01;89.69
54920;BME280;63804;53.120;8.764;2024-02-21T07:04:16;101737.47;;;10.02;89.79
54920;BME280;63804;53.120;8.764;2024-02-21T07:06:43;101743.34;;;10.07;89.50
54920;BME280;63804;53.120;8.764;2024-02-21T07:09:11;101738.16;;;10.06;89.31
54920;BME280;63804;53.120;8.764;2024-02-21T07:11:37;101737.47;;;10.02;89.43
54920;BME280;63804;53.120;8.764;2024-02-21T07:14:05;101739.19;;;10.03;89.33
54920;BME280;63804;53.120;8.764;2024-02-21T07:16:32;101750.66;;;10.04;89.72
54920;BME280;63804;53.120;8.764;2024-02-21T07:19:00;101749.59;;;10.06;89.67
54920;BME280;63804;53.120;8.764;2024-02-21T07:21:27;101758.47;;;10.05;89.51
54920;BME280;63804;53.120;8.764;2024-02-21T07:23:54;101761.03;;;10.07;89.44
54920;BME280;63804;53.120;8.764;2024-02-21T07:26:21;101759.16;;;10.09;89.57
54920;BME280;63804;53.120;8.764;2024-02-21T07:28:49;101752.25;;;10.06;89.42
54920;BME280;63804;53.120;8.764;2024-02-21T07:31:16;101747.81;;;10.07;89.34
54920;BME280;63804;53.120;8.764;2024-02-21T07:33:43;101743.28;;;10.09;88.94
54920;BME280;63804;53.120;8.764;2024-02-21T07:36:11;101740.81;;;10.06;88.72
54920;BME280;63804;53.120;8.764;2024-02-21T07:38:38;101750.22;;;10.11;88.69
54920;BME280;63804;53.120;8.764;2024-02-21T07:41:06;101745.94;;;10.24;88.00
54920;BME280;63804;53.120;8.764;2024-02-21T07:43:33;101752.78;;;10.29;87.89
54920;BME280;63804;53.120;8.764;2024-02-21T07:46:00;101755.44;;;10.29;87.67
54920;BME280;63804;53.120;8.764;2024-02-21T07:48:27;101756.53;;;10.24;87.84
54920;BME280;63804;53.120;8.764;2024-02-21T07:50:57;101745.56;;;10.15;88.01
54920;BME280;63804;53.120;8.764;2024-02-21T07:53:24;101745.34;;;10.19;88.10
54920;BME280;63804;53.120;8.764;2024-02-21T07:55:51;101754.69;;;10.27;87.83
54920;BME280;63804;53.120;8.764;2024-02-21T07:58:18;101751.84;;;10.30;87.79
54920;BME280;63804;53.120;8.764;2024-02-21T08:00:45;101747.22;;;10.33;87.45
54920;BME280;63804;53.120;8.764;2024-02-21T08:03:12;101746.31;;;10.34;87.56
54920;BME280;63804;53.120;8.764;2024-02-21T08:05:42;101741.00;;;10.34;87.42
54920;BME280;63804;53.120;8.764;2024-02-21T08:08:09;101739.38;;;10.32;87.79
54920;BME280;63804;53.120;8.764;2024-02-21T08:10:36;101738.38;;;10.34;87.53
54920;BME280;63804;53.120;8.764;2024-02-21T08:13:03;101731.16;;;10.36;87.32
54920;BME280;63804;53.120;8.764;2024-02-21T08:15:30;101728.00;;;10.45;87.03
54920;BME280;63804;53.120;8.764;2024-02-21T08:17:57;101722.50;;;10.48;87.06
54920;BME280;63804;53.120;8.764;2024-02-21T08:20:28;101718.84;;;10.51;86.68
54920;BME280;63804;53.120;8.764;2024-02-21T08:22:55;101711.56;;;10.55;86.28
54920;BME280;63804;53.120;8.764;2024-02-21T08:25:22;101720.53;;;10.52;86.16
54920;BME280;63804;53.120;8.764;2024-02-21T08:27:49;101704.19;;;10.45;86.72
54920;BME280;63804;53.120;8.764;2024-02-21T08:30:18;101713.22;;;10.41;86.49
54920;BME280;63804;53.120;8.764;2024-02-21T08:32:45;101706.13;;;10.58;86.30
54920;BME280;63804;53.120;8.764;2024-02-21T08:35:12;101712.56;;;10.68;85.51
54920;BME280;63804;53.120;8.764;2024-02-21T08:37:39;101712.09;;;10.61;85.91
54920;BME280;63804;53.120;8.764;2024-02-21T08:40:07;101723.34;;;10.65;85.69
54920;BME280;63804;53.120;8.764;2024-02-21T08:42:36;101705.16;;;10.59;85.54
54920;BME280;63804;53.120;8.764;2024-02-21T08:45:06;101713.59;;;10.65;86.18
54920;BME280;63804;53.120;8.764;2024-02-21T08:47:33;101696.09;;;10.63;86.04
54920;BME280;63804;53.120;8.764;2024-02-21T08:50:01;101695.84;;;10.82;85.24
54920;BME280;63804;53.120;8.764;2024-02-21T08:52:44;101696.22;;;10.76;85.81
54920;BME280;63804;53.120;8.764;2024-02-21T08:55:11;101689.78;;;10.65;85.60
54920;BME280;63804;53.120;8.764;2024-02-21T08:57:38;101681.94;;;10.78;85.00
54920;BME280;63804;53.120;8.764;2024-02-21T09:00:05;101687.91;;;10.82;85.17
54920;BME280;63804;53.120;8.764;2024-02-21T09:02:40;101682.88;;;10.77;85.02
54920;BME280;63804;53.120;8.764;2024-02-21T09:05:07;101679.41;;;10.46;85.89
54920;BME280;63804;53.120;8.764;2024-02-21T09:07:35;101673.56;;;10.56;85.70
54920;BME280;63804;53.120;8.764;2024-02-21T09:10:02;101679.91;;;10.53;85.70
54920;BME280;63804;53.120;8.764;2024-02-21T09:12:29;101684.47;;;10.65;85.23
54920;BME280;63804;53.120;8.764;2024-02-21T09:14:57;101687.41;;;10.75;85.07
54920;BME280;63804;53.120;8.764;2024-02-21T09:17:24;101683.78;;;10.62;85.26
54920;BME280;63804;53.120;8.764;2024-02-21T09:19:52;101686.22;;;10.51;85.52
54920;BME280;63804;53.120;8.764;2024-02-21T09:22:19;101683.91;;;10.44;85.73
54920;BME280;63804;53.120;8.764;2024-02-21T09:24:46;101678.56;;;10.46;85.46
54920;BME280;63804;53.120;8.764;2024-02-21T09:27:14;101682.34;;;10.56;85.48
54920;BME280;63804;53.120;8.764;2024-02-21T09:29:41;101678.84;;;10.56;85.01
54920;BME280;63804;53.120;8.764;2024-02-21T09:32:08;101679.28;;;10.48;85.31
54920;BME280;63804;53.120;8.764;2024-02-21T09:34:36;101667.19;;;10.44;85.55
54920;BME280;63804;53.120;8.764;2024-02-21T09:37:03;101664.94;;;10.52;85.07
54920;BME280;63804;53.120;8.764;2024-02-21T09:39:30;101666.56;;;10.55;84.88
54920;BME280;63804;53.120;8.764;2024-02-21T09:42:05;101666.84;;;10.50;84.81
54920;BME280;63804;53.120;8.764;2024-02-21T09:44:36;101664.09;;;10.52;84.99
54920;BME280;63804;53.120;8.764;2024-02-21T09:47:10;101664.00;;;10.53;85.13
54920;BME280;63804;53.120;8.764;2024-02-21T09:49:42;101664.75;;;10.55;84.72
54920;BME280;63804;53.120;8.764;2024-02-21T09:52:12;101663.13;;;10.53;84.63
54920;BME280;63804;53.120;8.764;2024-02-21T09:54:41;101655.22;;;10.67;84.35
54920;BME280;63804;53.120;8.764;2024-02-21T09:57:11;101656.94;;;10.68;83.52
54920;BME280;63804;53.120;8.764;2024-02-21T09:59:40;101658.91;;;10.64;84.01
54920;BME280;63804;53.120;8.764;2024-02-21T10:02:09;101648.13;;;10.53;84.31
54920;BME280;63804;53.120;8.764;2024-02-21T10:04:39;101640.34;;;10.50;83.76
54920;BME280;63804;53.120;8.764;2024-02-21T10:07:07;101633.66;;;10.59;83.81
54920;BME280;63804;53.120;8.764;2024-02-21T10:09:36;101637.72;;;10.64;83.19
54920;BME280;63804;53.120;8.764;2024-02-21T10:12:10;101622.41;;;10.69;83.03
54920;BME280;63804;53.120;8.764;2024-02-21T10:14:39;101626.88;;;10.69;82.88
54920;BME280;63804;53.120;8.764;2024-02-21T10:17:07;101625.34;;;10.65;83.07
54920;BME280;63804;53.120;8.764;2024-02-21T10:19:38;101624.41;;;10.66;82.63
54920;BME280;63804;53.120;8.764;2024-02-21T10:22:08;101616.41;;;10.52;82.81
54920;BME280;63804;53.120;8.764;2024-02-21T10:24:36;101616.91;;;10.58;82.89
54920;BME280;63804;53.120;8.764;2024-02-21T10:27:10;101614.84;;;10.78;82.21
54920;BME280;63804;53.120;8.764;2024-02-21T10:29:40;101606.78;;;10.79;81.69
54920;BME280;63804;53.120;8.764;2024-02-21T10:32:08;101607.06;;;10.60;81.86
54920;BME280;63804;53.120;8.764;2024-02-21T10:34:37;101605.66;;;10.69;81.39
54920;BME280;63804;53.120;8.764;2024-02-21T10:37:06;101595.34;;;10.79;81.50
54920;BME280;63804;53.120;8.764;2024-02-21T10:39:43;101600.16;;;10.72;81.21
54920;BME280;63804;53.120;8.764;2024-02-21T10:42:11;101589.66;;;10.70;80.96
54920;BME280;63804;53.120;8.764;2024-02-21T10:44:40;101589.22;;;10.78;81.03
54920;BME280;63804;53.120;8.764;2024-02-21T10:47:10;101590.81;;;10.81;80.74
54920;BME280;63804;53.120;8.764;2024-02-21T10:49:41;101592.91;;;10.90;80.58
54920;BME280;63804;53.120;8.764;2024-02-21T10:55:02;101587.22;;;10.82;80.33
54920;BME280;63804;53.120;8.764;2024-02-21T10:57:34;101574.44;;;10.74;80.41
54920;BME280;63804;53.120;8.764;2024-02-21T11:00:04;101571.81;;;10.88;79.60
54920;BME280;63804;53.120;8.764;2024-02-21T11:02:35;101571.22;;;10.97;79.64
54920;BME280;63804;53.120;8.764;2024-02-21T11:05:03;101568.38;;;11.01;79.34
54920;BME280;63804;53.120;8.764;2024-02-21T11:07:32;101566.22;;;10.93;78.42
54920;BME280;63804;53.120;8.764;2024-02-21T11:10:02;101565.56;;;11.04;78.31
54920;BME280;63804;53.120;8.764;2024-02-21T11:12:32;101558.94;;;10.96;78.31
54920;BME280;63804;53.120;8.764;2024-02-21T11:15:05;101550.25;;;11.21;76.87
54920;BME280;63804;53.120;8.764;2024-02-21T11:17:33;101552.53;;;11.28;76.99
54920;BME280;63804;53.120;8.764;2024-02-21T11:20:15;101545.06;;;11.34;76.55
54920;BME280;63804;53.120;8.764;2024-02-21T11:22:43;101537.69;;;11.52;76.36
54920;BME280;63804;53.120;8.764;2024-02-21T11:25:11;101529.03;;;11.63;75.78
54920;BME280;63804;53.120;8.764;2024-02-21T11:27:38;101522.47;;;11.68;75.55
54920;BME280;63804;53.120;8.764;2024-02-21T11:30:12;101521.03;;;11.77;74.80
54920;BME280;63804;53.120;8.764;2024-02-21T11:32:41;101505.47;;;11.85;74.79
54920;BME280;63804;53.120;8.764;2024-02-21T11:35:19;101505.50;;;11.71;72.99
54920;BME280;63804;53.120;8.764;2024-02-21T11:37:46;101494.22;;;11.67;74.10
54920;BME280;63804;53.120;8.764;2024-02-21T11:40:14;101498.91;;;11.64;73.72
54920;BME280;63804;53.120;8.764;2024-02-21T11:42:41;101491.50;;;11.69;73.44
54920;BME280;63804;53.120;8.764;2024-02-21T11:45:08;101477.50;;;11.80;73.19
54920;BME280;63804;53.120;8.764;2024-02-21T11:47:36;101478.44;;;11.79;72.09
54920;BME280;63804;53.120;8.764;2024-02-21T11:50:09;101477.50;;;11.80;72.63
54920;BME280;63804;53.120;8.764;2024-02-21T11:52:38;101476.94;;;11.75;71.83
54920;BME280;63804;53.120;8.764;2024-02-21T11:55:06;101470.78;;;11.74;72.34
54920;BME280;63804;53.120;8.764;2024-02-21T11:57:37;101476.75;;;11.78;71.75
54920;BME280;63804;53.120;8.764;2024-02-21T12:00:15;101461.44;;;11.95;71.38
54920;BME280;63804;53.120;8.764;2024-02-21T12:02:43;101459.38;;;11.86;71.57
54920;BME280;63804;53.120;8.764;2024-02-21T12:05:12;101454.50;;;11.93;70.77
54920;BME280;63804;53.120;8.764;2024-02-21T12:07:40;101455.69;;;12.02;71.22
54920;BME280;63804;53.120;8.764;2024-02-21T12:10:11;101449.16;;;11.80;70.91
54920;BME280;63804;53.120;8.764;2024-02-21T12:12:42;101448.00;;;11.71;71.17
54920;BME280;63804;53.120;8.764;2024-02-21T12:15:10;101443.22;;;11.64;71.70
54920;BME280;63804;53.120;8.764;2024-02-21T12:17:39;101448.72;;;11.74;71.03
54920;BME280;63804;53.120;8.764;2024-02-21T12:20:07;101429.56;;;11.95;70.74
54920;BME280;63804;53.120;8.764;2024-02-21T12:22:49;101431.78;;;12.02;68.48
54920;BME280;63804;53.120;8.764;2024-02-21T12:25:22;101429.91;;;11.91;69.67
54920;BME280;63804;53.120;8.764;2024-02-21T12:27:50;101426.38;;;11.90;68.93
54920;BME280;63804;53.120;8.764;2024-02-21T12:30:18;101422.63;;;11.80;69.89
54920;BME280;63804;53.120;8.764;2024-02-21T12:32:46;101427.19;;;11.78;69.95
54920;BME280;63804;53.120;8.764;2024-02-21T12:35:20;101405.25;;;12.02;69.42
54920;BME280;63804;53.120;8.764;2024-02-21T12:37:48;101416.31;;;11.95;68.26
54920;BME280;63804;53.120;8.764;2024-02-21T12:40:15;101409.44;;;11.79;69.10
54920;BME280;63804;53.120;8.764;2024-02-21T12:42:43;101410.03;;;11.84;68.92
54920;BME280;63804;53.120;8.764;2024-02-21T12:45:12;101395.69;;;11.86;68.76
54920;BME280;63804;53.120;8.764;2024-02-21T12:47:40;101393.16;;;11.85;68.80
54920;BME280;63804;53.120;8.764;2024-02-21T12:50:07;101379.47;;;11.91;68.75
54920;BME280;63804;53.120;8.764;2024-02-21T12:52:35;101373.63;;;11.86;68.40
54920;BME280;63804;53.120;8.764;2024-02-21T12:55:02;101368.84;;;12.04;68.62
54920;BME280;63804;53.120;8.764;2024-02-21T12:57:29;101354.19;;;12.11;68.35
54920;BME280;63804;53.120;8.764;2024-02-21T12:59:57;101355.25;;;12.21;68.16